createdAt,value
2018-01-02T00:00:33.556Z,6.03
2018-01-02T00:01:33.578Z,6.05
2018-01-02T00:02:33.590Z,6.06
2018-01-02T00:03:33.615Z,6.03
2018-01-02T00:04:33.629Z,6.07
2018-01-02T00:05:33.653Z,6.06
2018-01-02T00:06:33.667Z,6.06
2018-01-02T00:07:33.691Z,6.02
2018-01-02T00:08:33.705Z,6.05
2018-01-02T00:09:33.732Z,6.06
2018-01-02T00:10:33.744Z,6.02
2018-01-02T00:11:33.767Z,6.03
2018-01-02T00:12:33.782Z,6.06
2018-01-02T00:13:33.801Z,6.03
2018-01-02T00:14:33.824Z,6.05
2018-01-02T00:15:33.839Z,6.09
2018-01-02T00:16:33.863Z,5.96
2018-01-02T00:17:33.878Z,6.02
2018-01-02T00:18:33.902Z,6.02
2018-01-02T00:19:33.915Z,6.02
2018-01-02T00:20:33.940Z,6.05
2018-01-02T00:21:33.954Z,6.06
2018-01-02T00:22:33.978Z,6.09
2018-01-02T00:23:33.989Z,6.05
2018-01-02T00:24:34.016Z,6.03
2018-01-02T00:25:34.029Z,6.07
2018-01-02T00:26:34.053Z,6.03
2018-01-02T00:27:34.066Z,5.99
2018-01-02T00:28:34.092Z,6.00
2018-01-02T00:29:34.110Z,6.06
2018-01-02T00:30:34.123Z,6.00
2018-01-02T00:31:34.142Z,6.10
2018-01-02T00:32:34.167Z,6.00
2018-01-02T00:33:34.185Z,6.13
2018-01-02T00:34:34.202Z,6.07
2018-01-02T00:35:34.217Z,6.03
2018-01-02T00:36:34.242Z,6.06
2018-01-02T00:37:34.261Z,6.13
2018-01-02T00:38:34.274Z,6.09
2018-01-02T00:39:34.294Z,6.14
2018-01-02T00:40:34.321Z,6.10
2018-01-02T00:41:34.336Z,6.14
2018-01-02T00:42:34.350Z,6.10
2018-01-02T00:43:34.369Z,6.09
2018-01-02T00:44:34.394Z,6.14
2018-01-02T00:45:34.413Z,6.14
2018-01-02T00:46:34.425Z,6.17
2018-01-02T00:47:34.449Z,6.10
2018-01-02T00:48:34.462Z,6.17
2018-01-02T00:49:34.489Z,6.17
2018-01-02T00:50:34.501Z,6.14
2018-01-02T00:51:34.527Z,6.10
2018-01-02T00:52:34.540Z,6.15
2018-01-02T00:53:34.568Z,6.14
2018-01-02T00:54:34.576Z,6.13
2018-01-02T00:55:34.601Z,6.06
2018-01-02T00:56:34.614Z,6.13
2018-01-02T00:57:34.639Z,6.13
2018-01-02T00:58:34.652Z,6.10
2018-01-02T00:59:34.677Z,6.17
2018-01-02T01:00:34.689Z,6.02
2018-01-02T01:01:34.709Z,6.00
2018-01-02T01:02:34.733Z,6.09
2018-01-02T01:03:34.746Z,6.02
2018-01-02T01:04:34.770Z,6.03
2018-01-02T01:05:34.789Z,6.05
2018-01-02T01:06:34.802Z,6.03
2018-01-02T01:07:34.821Z,6.10
2018-01-02T01:08:34.840Z,6.10
2018-01-02T01:09:34.860Z,6.14
2018-01-02T01:10:34.886Z,6.14
2018-01-02T01:11:34.903Z,6.09
2018-01-02T01:12:34.915Z,6.09
2018-01-02T01:13:34.934Z,6.10
2018-01-02T01:14:34.958Z,6.10
2018-01-02T01:15:34.978Z,6.05
2018-01-02T01:16:34.991Z,6.09
2018-01-02T01:17:35.029Z,6.07
2018-01-02T01:18:35.028Z,6.06
2018-01-02T01:19:35.051Z,6.14
2018-01-02T01:20:35.072Z,6.00
2018-01-02T01:21:35.085Z,6.07
2018-01-02T01:22:35.109Z,6.05
2018-01-02T01:23:35.123Z,6.03
2018-01-02T01:24:35.142Z,6.05
2018-01-02T01:25:35.168Z,6.02
2018-01-02T01:26:35.179Z,6.05
2018-01-02T01:27:35.202Z,6.06
2018-01-02T01:28:35.216Z,6.03
2018-01-02T01:29:35.248Z,6.05
2018-01-02T01:30:35.254Z,6.06
2018-01-02T01:31:35.279Z,6.06
2018-01-02T01:32:35.293Z,6.03
2018-01-02T01:33:35.317Z,6.07
2018-01-02T01:34:35.335Z,6.06
2018-01-02T01:35:35.353Z,6.05
2018-01-02T01:36:35.368Z,6.07
2018-01-02T01:37:35.393Z,6.02
2018-01-02T01:38:35.405Z,6.03
2018-01-02T01:39:35.429Z,6.03
2018-01-02T01:40:35.449Z,6.03
2018-01-02T01:41:35.462Z,6.03
2018-01-02T01:42:35.485Z,6.03
2018-01-02T01:43:35.505Z,6.07
2018-01-02T01:44:35.518Z,6.07
2018-01-02T01:45:35.537Z,6.06
2018-01-02T01:46:35.561Z,6.09
2018-01-02T01:47:35.580Z,6.07
2018-01-02T01:48:35.593Z,6.05
2018-01-02T01:49:35.618Z,6.06
2018-01-02T01:50:35.635Z,6.02
2018-01-02T01:51:35.649Z,6.00
2018-01-02T01:52:35.673Z,6.07
2018-01-02T01:53:35.693Z,6.03
2018-01-02T01:54:35.705Z,6.07
2018-01-02T01:55:35.724Z,6.07
2018-01-02T01:56:35.743Z,6.09
2018-01-02T01:57:35.768Z,6.00
2018-01-02T01:58:35.781Z,6.00
2018-01-02T01:59:35.799Z,6.03
2018-01-02T02:00:35.824Z,5.92
2018-01-02T02:01:35.842Z,5.98
2018-01-02T02:02:35.856Z,5.99
2018-01-02T02:03:35.873Z,5.96
2018-01-02T02:04:35.897Z,5.99
2018-01-02T02:05:35.916Z,5.95
2018-01-02T02:06:35.935Z,6.00
2018-01-02T02:07:35.948Z,5.89
2018-01-02T02:08:35.973Z,5.95
2018-01-02T02:09:35.992Z,5.95
2018-01-02T02:10:36.002Z,6.00
2018-01-02T02:11:36.023Z,5.91
2018-01-02T02:12:36.042Z,5.85
2018-01-02T02:13:36.066Z,5.92
2018-01-02T02:14:36.078Z,5.89
2018-01-02T02:15:36.103Z,5.96
2018-01-02T02:16:36.115Z,5.89
2018-01-02T02:17:36.139Z,5.88
2018-01-02T02:18:36.153Z,5.85
2018-01-02T02:19:36.176Z,5.95
2018-01-02T02:20:36.191Z,5.88
2018-01-02T02:21:36.213Z,6.02
2018-01-02T02:22:36.226Z,5.98
2018-01-02T02:23:36.246Z,5.95
2018-01-02T02:24:36.270Z,5.88
2018-01-02T02:25:36.283Z,5.88
2018-01-02T02:26:36.308Z,5.88
2018-01-02T02:27:36.320Z,5.92
2018-01-02T02:28:36.339Z,5.84
2018-01-02T02:29:36.359Z,5.89
2018-01-02T02:30:36.380Z,5.92
2018-01-02T02:31:36.394Z,5.87
2018-01-02T02:32:36.418Z,5.85
2018-01-02T02:33:36.433Z,5.84
2018-01-02T02:34:36.455Z,5.88
2018-01-02T02:35:36.469Z,5.87
2018-01-02T02:36:36.494Z,5.81
2018-01-02T02:37:36.511Z,5.87
2018-01-02T02:38:36.525Z,5.85
2018-01-02T02:39:36.548Z,5.85
2018-01-02T02:40:36.564Z,5.85
2018-01-02T02:41:36.587Z,5.82
2018-01-02T02:42:36.598Z,5.77
2018-01-02T02:43:36.622Z,5.80
2018-01-02T02:44:36.634Z,5.81
2018-01-02T02:45:36.660Z,5.81
2018-01-02T02:46:36.672Z,5.81
2018-01-02T02:47:36.703Z,5.73
2018-01-02T02:48:36.710Z,5.85
2018-01-02T02:49:36.735Z,5.82
2018-01-02T02:50:36.746Z,5.84
2018-01-02T02:51:36.774Z,5.75
2018-01-02T02:52:36.786Z,5.72
2018-01-02T02:53:36.803Z,5.70
2018-01-02T02:54:36.825Z,5.72
2018-01-02T02:55:36.851Z,5.73
2018-01-02T02:56:36.856Z,5.77
2018-01-02T02:57:36.876Z,5.72
2018-01-02T02:58:36.900Z,5.70
2018-01-02T02:59:36.917Z,5.70
2018-01-02T03:00:36.931Z,5.75
2018-01-02T03:01:36.950Z,5.67
2018-01-02T03:02:36.973Z,5.63
2018-01-02T03:03:36.991Z,5.72
2018-01-02T03:04:37.007Z,5.70
2018-01-02T03:05:37.023Z,5.78
2018-01-02T03:06:37.047Z,5.62
2018-01-02T03:07:37.066Z,5.69
2018-01-02T03:08:37.078Z,5.57
2018-01-02T03:09:37.097Z,5.60
2018-01-02T03:10:37.121Z,5.66
2018-01-02T03:11:37.138Z,5.59
2018-01-02T03:12:37.152Z,5.62
2018-01-02T03:13:37.170Z,5.57
2018-01-02T03:14:37.193Z,5.55
2018-01-02T03:15:37.212Z,5.60
2018-01-02T03:16:37.225Z,5.59
2018-01-02T03:17:37.242Z,5.60
2018-01-02T03:18:37.267Z,5.55
2018-01-02T03:19:37.285Z,5.52
2018-01-02T03:20:37.298Z,5.54
2018-01-02T03:21:37.316Z,5.55
2018-01-02T03:22:37.340Z,5.49
2018-01-02T03:23:37.358Z,5.55
2018-01-02T03:24:37.372Z,5.54
2018-01-02T03:25:37.390Z,5.55
2018-01-02T03:26:37.413Z,5.52
2018-01-02T03:27:37.425Z,5.51
2018-01-02T03:28:37.449Z,5.52
2018-01-02T03:29:37.462Z,5.54
2018-01-02T03:30:37.486Z,5.51
2018-01-02T03:31:37.498Z,5.51
2018-01-02T03:32:37.525Z,5.45
2018-01-02T03:33:37.535Z,5.49
2018-01-02T03:34:37.557Z,5.49
2018-01-02T03:35:37.572Z,5.46
2018-01-02T03:36:37.596Z,5.51
2018-01-02T03:37:37.608Z,5.49
2018-01-02T03:38:37.631Z,5.45
2018-01-02T03:39:37.644Z,5.49
2018-01-02T03:40:37.667Z,5.45
2018-01-02T03:41:37.686Z,5.46
2018-01-02T03:42:37.698Z,5.48
2018-01-02T03:43:37.721Z,5.46
2018-01-02T03:44:37.735Z,5.45
2018-01-02T03:45:37.760Z,5.48
2018-01-02T03:46:37.771Z,5.51
2018-01-02T03:47:37.796Z,5.52
2018-01-02T03:48:37.808Z,5.48
2018-01-02T03:49:37.826Z,5.48
2018-01-02T03:50:37.850Z,5.48
2018-01-02T03:51:37.868Z,5.48
2018-01-02T03:52:37.881Z,5.49
2018-01-02T03:53:37.898Z,5.48
2018-01-02T03:54:37.922Z,5.54
2018-01-02T03:55:37.941Z,5.54
2018-01-02T03:56:37.953Z,5.54
2018-01-02T03:57:37.972Z,5.55
2018-01-02T03:58:37.995Z,5.49
2018-01-02T03:59:38.013Z,5.55
2018-01-02T04:00:38.026Z,5.48
2018-01-02T04:01:38.045Z,5.49
2018-01-02T04:02:38.066Z,5.57
2018-01-02T04:03:38.084Z,5.54
2018-01-02T04:04:38.098Z,5.54
2018-01-02T04:05:38.122Z,5.60
2018-01-02T04:06:38.136Z,5.57
2018-01-02T04:07:38.153Z,5.46
2018-01-02T04:08:38.178Z,5.49
2018-01-02T04:09:38.194Z,5.51
2018-01-02T04:10:38.208Z,5.49
2018-01-02T04:11:38.225Z,5.51
2018-01-02T04:12:38.250Z,5.45
2018-01-02T04:13:38.262Z,5.46
2018-01-02T04:14:38.284Z,5.46
2018-01-02T04:15:38.304Z,5.45
2018-01-02T04:16:38.317Z,5.52
2018-01-02T04:17:38.335Z,5.51
2018-01-02T04:18:38.359Z,5.54
2018-01-02T04:19:38.377Z,5.55
2018-01-02T04:20:38.389Z,5.51
2018-01-02T04:21:38.407Z,5.44
2018-01-02T04:22:38.431Z,5.54
2018-01-02T04:23:38.444Z,5.51
2018-01-02T04:24:38.469Z,5.54
2018-01-02T04:25:38.480Z,5.49
2018-01-02T04:26:38.503Z,5.54
2018-01-02T04:27:38.518Z,5.54
2018-01-02T04:28:38.541Z,5.49
2018-01-02T04:29:38.553Z,5.48
2018-01-02T04:30:38.577Z,5.54
2018-01-02T04:31:38.589Z,5.52
2018-01-02T04:32:38.613Z,5.49
2018-01-02T04:33:38.626Z,5.54
2018-01-02T04:34:38.648Z,5.52
2018-01-02T04:35:38.663Z,5.55
2018-01-02T04:36:38.686Z,5.55
2018-01-02T04:37:38.706Z,5.55
2018-01-02T04:38:38.717Z,5.57
2018-01-02T04:39:38.741Z,5.57
2018-01-02T04:40:38.754Z,5.63
2018-01-02T04:41:38.779Z,5.62
2018-01-02T04:42:38.790Z,5.60
2018-01-02T04:43:38.815Z,5.63
2018-01-02T04:44:38.827Z,5.77
2018-01-02T04:45:38.852Z,5.73
2018-01-02T04:46:38.868Z,5.69
2018-01-02T04:47:38.882Z,5.69
2018-01-02T04:48:38.906Z,5.70
2018-01-02T04:49:38.924Z,5.69
2018-01-02T04:50:38.938Z,5.72
2018-01-02T04:51:38.957Z,5.75
2018-01-02T04:52:38.976Z,5.82
2018-01-02T04:53:39.000Z,5.75
2018-01-02T04:54:39.011Z,5.80
2018-01-02T04:55:39.037Z,5.80
2018-01-02T04:56:39.049Z,5.81
2018-01-02T04:57:39.071Z,5.80
2018-01-02T04:58:39.083Z,5.73
2018-01-02T04:59:39.110Z,5.75
2018-01-02T05:00:39.121Z,5.77
2018-01-02T05:01:39.141Z,5.81
2018-01-02T05:02:39.159Z,5.77
2018-01-02T05:03:39.176Z,5.84
2018-01-02T05:04:39.198Z,5.78
2018-01-02T05:05:39.214Z,5.81
2018-01-02T05:06:39.237Z,5.87
2018-01-02T05:07:39.255Z,5.75
2018-01-02T05:08:39.269Z,5.78
2018-01-02T05:09:39.287Z,5.78
2018-01-02T05:10:39.310Z,5.82
2018-01-02T05:11:39.324Z,5.87
2018-01-02T05:12:39.358Z,5.89
2018-01-02T05:13:39.360Z,5.89
2018-01-02T05:14:39.384Z,5.80
2018-01-02T05:15:39.397Z,5.87
2018-01-02T05:16:39.421Z,5.82
2018-01-02T05:17:39.438Z,5.82
2018-01-02T05:18:39.456Z,5.82
2018-01-02T05:19:39.479Z,5.85
2018-01-02T05:20:39.489Z,5.88
2018-01-02T05:21:39.512Z,5.87
2018-01-02T05:22:39.525Z,5.87
2018-01-02T05:23:39.549Z,5.89
2018-01-02T05:24:39.567Z,5.95
2018-01-02T05:25:39.579Z,5.88
2018-01-02T05:26:39.604Z,5.92
2018-01-02T05:27:39.623Z,5.95
2018-01-02T05:28:39.635Z,5.95
2018-01-02T05:29:39.701Z,6.02
2018-01-02T05:30:39.678Z,5.98
2018-01-02T05:31:39.697Z,5.98
2018-01-02T05:32:39.709Z,5.99
2018-01-02T05:33:39.733Z,5.99
2018-01-02T05:34:39.752Z,6.02
2018-01-02T05:35:39.764Z,6.02
2018-01-02T05:36:39.789Z,6.06
2018-01-02T05:37:39.808Z,5.95
2018-01-02T05:38:39.820Z,6.02
2018-01-02T05:39:39.860Z,6.00
2018-01-02T05:40:39.890Z,6.03
2018-01-02T05:41:39.921Z,5.96
2018-01-02T05:42:39.907Z,6.02
2018-01-02T05:43:39.992Z,6.03
2018-01-02T05:44:39.963Z,6.10
2018-01-02T05:45:39.982Z,6.07
2018-01-02T05:46:39.981Z,6.03
2018-01-02T05:47:40.025Z,6.07
2018-01-02T05:48:40.048Z,6.03
2018-01-02T05:49:40.047Z,6.05
2018-01-02T05:50:40.064Z,6.09
2018-01-02T05:51:40.073Z,6.05
2018-01-02T05:52:40.099Z,5.98
2018-01-02T05:53:40.172Z,6.03
2018-01-02T05:54:40.133Z,6.03
2018-01-02T05:55:40.155Z,5.98
2018-01-02T05:56:40.168Z,6.00
2018-01-02T05:57:40.187Z,6.02
2018-01-02T05:58:40.210Z,6.00
2018-01-02T05:59:40.230Z,5.92
2018-01-02T06:00:40.247Z,6.00
2018-01-02T06:01:40.260Z,5.99
2018-01-02T06:02:40.285Z,5.96
2018-01-02T06:03:40.352Z,5.99
2018-01-02T06:04:40.318Z,5.98
2018-01-02T06:05:40.342Z,5.98
2018-01-02T06:06:40.359Z,6.03
2018-01-02T06:07:40.374Z,5.96
2018-01-02T06:08:40.389Z,5.87
2018-01-02T06:09:40.415Z,5.88
2018-01-02T06:10:40.427Z,5.85
2018-01-02T06:11:40.452Z,5.88
2018-01-02T06:12:40.466Z,5.89
2018-01-02T06:13:40.542Z,5.80
2018-01-02T06:14:40.500Z,5.85
2018-01-02T06:15:40.524Z,5.91
2018-01-02T06:16:40.540Z,5.87
2018-01-02T06:17:40.562Z,5.82
2018-01-02T06:18:40.625Z,5.82
2018-01-02T06:19:40.599Z,5.85
2018-01-02T06:20:40.615Z,5.88
2018-01-02T06:21:40.637Z,5.85
2018-01-02T06:22:40.654Z,5.80
2018-01-02T06:23:40.661Z,5.87
2018-01-02T06:24:40.701Z,5.87
2018-01-02T06:25:40.697Z,5.81
2018-01-02T06:26:40.708Z,5.84
2018-01-02T06:27:40.731Z,5.81
2018-01-02T06:28:40.751Z,5.85
2018-01-02T06:29:40.767Z,5.85
2018-01-02T06:30:40.786Z,5.84
2018-01-02T06:31:40.801Z,5.85
2018-01-02T06:32:40.824Z,5.91
2018-01-02T06:33:41.134Z,5.84
2018-01-02T06:34:40.874Z,5.81
2018-01-02T06:35:40.904Z,5.87
2018-01-02T06:36:40.926Z,5.87
2018-01-02T06:37:40.931Z,5.85
2018-01-02T06:38:41.000Z,5.85
2018-01-02T06:39:40.947Z,5.80
2018-01-02T06:40:40.971Z,5.87
2018-01-02T06:41:40.990Z,5.78
2018-01-02T06:42:41.034Z,5.78
2018-01-02T06:43:41.022Z,5.78
2018-01-02T06:44:41.040Z,5.78
2018-01-02T06:45:41.058Z,5.81
2018-01-02T06:46:41.086Z,5.80
2018-01-02T06:47:41.100Z,5.75
2018-01-02T06:48:41.114Z,5.81
2018-01-02T06:49:41.132Z,5.87
2018-01-02T06:50:41.156Z,5.87
2018-01-02T06:51:41.174Z,5.87
2018-01-02T06:52:41.186Z,5.84
2018-01-02T06:53:41.205Z,5.85
2018-01-02T06:54:41.229Z,5.92
2018-01-02T06:55:41.247Z,5.88
2018-01-02T06:56:41.265Z,5.88
2018-01-02T06:57:41.279Z,5.87
2018-01-02T06:58:41.304Z,5.92
2018-01-02T06:59:41.323Z,5.98
2018-01-02T07:00:41.339Z,5.95
2018-01-02T07:01:41.354Z,5.98
2018-01-02T07:02:41.377Z,5.96
2018-01-02T07:03:41.392Z,5.92
2018-01-02T07:04:41.415Z,5.98
2018-01-02T07:05:41.427Z,5.96
2018-01-02T07:06:41.451Z,5.99
2018-01-02T07:07:41.466Z,5.96
2018-01-02T07:08:41.488Z,6.02
2018-01-02T07:09:41.502Z,6.00
2018-01-02T07:10:41.526Z,5.98
2018-01-02T07:11:41.537Z,6.03
2018-01-02T07:12:41.563Z,6.03
2018-01-02T07:13:41.575Z,6.05
2018-01-02T07:14:41.599Z,6.03
2018-01-02T07:15:41.613Z,6.02
2018-01-02T07:16:41.636Z,6.02
2018-01-02T07:17:41.655Z,6.02
2018-01-02T07:18:41.667Z,6.10
2018-01-02T07:19:41.691Z,5.99
2018-01-02T07:20:41.705Z,6.03
2018-01-02T07:21:41.731Z,5.99
2018-01-02T07:22:41.741Z,5.99
2018-01-02T07:23:41.771Z,6.02
2018-01-02T07:24:41.787Z,6.03
2018-01-02T07:25:41.807Z,6.03
2018-01-02T07:26:41.815Z,6.07
2018-01-02T07:27:41.840Z,6.10
2018-01-02T07:28:41.853Z,6.14
2018-01-02T07:29:41.877Z,6.07
2018-01-02T07:30:41.888Z,6.14
2018-01-02T07:31:41.913Z,6.09
2018-01-02T07:32:41.928Z,6.14
2018-01-02T07:33:41.946Z,6.06
2018-01-02T07:34:41.969Z,6.09
2018-01-02T07:35:41.988Z,6.14
2018-01-02T07:36:42.002Z,6.18
2018-01-02T07:37:42.020Z,6.24
2018-01-02T07:38:42.048Z,6.14
2018-01-02T07:39:42.062Z,6.20
2018-01-02T07:40:42.076Z,6.20
2018-01-02T07:41:42.095Z,6.17
2018-01-02T07:42:42.119Z,6.09
2018-01-02T07:43:42.136Z,6.09
2018-01-02T07:44:42.151Z,6.20
2018-01-02T07:45:42.186Z,6.18
2018-01-02T07:46:42.192Z,6.20
2018-01-02T07:47:42.212Z,6.28
2018-01-02T07:48:42.224Z,6.25
2018-01-02T07:49:42.250Z,6.24
2018-01-02T07:50:42.262Z,6.18
2018-01-02T07:51:42.281Z,6.20
2018-01-02T07:52:42.305Z,6.20
2018-01-02T07:53:42.324Z,6.29
2018-01-02T07:54:42.336Z,6.34
2018-01-02T07:55:42.353Z,6.33
2018-01-02T07:56:42.379Z,6.37
2018-01-02T07:57:42.392Z,6.34
2018-01-02T07:58:42.416Z,6.25
2018-01-02T07:59:42.435Z,6.26
2018-01-02T08:00:42.448Z,6.29
2018-01-02T08:01:42.468Z,6.26
2018-01-02T08:02:42.494Z,6.26
2018-01-02T08:03:42.510Z,6.28
2018-01-02T08:04:42.524Z,6.31
2018-01-02T08:05:42.541Z,6.39
2018-01-02T08:06:42.572Z,6.34
2018-01-02T08:07:42.585Z,6.36
2018-01-02T08:08:42.599Z,6.31
2018-01-02T08:09:42.616Z,6.34
2018-01-02T08:10:42.654Z,6.39
2018-01-02T08:11:42.659Z,6.39
2018-01-02T08:12:42.672Z,6.39
2018-01-02T08:13:42.691Z,6.33
2018-01-02T08:14:42.715Z,6.39
2018-01-02T08:15:42.762Z,6.39
2018-01-02T08:16:42.753Z,6.36
2018-01-02T08:17:42.766Z,6.39
2018-01-02T08:18:42.790Z,6.40
2018-01-02T08:19:42.804Z,6.43
2018-01-02T08:20:42.833Z,6.47
2018-01-02T08:21:42.842Z,6.40
2018-01-02T08:22:42.864Z,6.47
2018-01-02T08:23:42.877Z,6.54
2018-01-02T08:24:42.907Z,6.47
2018-01-02T08:25:42.920Z,6.55
2018-01-02T08:26:42.970Z,6.60
2018-01-02T08:27:42.978Z,6.52
2018-01-02T08:28:43.064Z,6.58
2018-01-02T08:29:43.032Z,6.61
2018-01-02T08:30:43.037Z,6.65
2018-01-02T08:31:43.070Z,6.62
2018-01-02T08:32:43.065Z,6.65
2018-01-02T08:33:43.142Z,6.51
2018-01-02T08:34:43.084Z,6.60
2018-01-02T08:35:43.107Z,6.64
2018-01-02T08:36:43.121Z,6.62
2018-01-02T08:37:43.145Z,6.62
2018-01-02T08:38:43.158Z,6.60
2018-01-02T08:39:43.182Z,6.62
2018-01-02T08:40:43.196Z,6.54
2018-01-02T08:41:43.221Z,6.62
2018-01-02T08:42:43.234Z,6.57
2018-01-02T08:43:43.258Z,6.58
2018-01-02T08:44:43.272Z,6.64
2018-01-02T08:45:43.290Z,6.64
2018-01-02T08:46:43.314Z,6.64
2018-01-02T08:47:43.333Z,6.68
2018-01-02T08:48:43.346Z,6.60
2018-01-02T08:49:43.366Z,6.58
2018-01-02T08:50:43.391Z,6.76
2018-01-02T08:51:43.409Z,6.64
2018-01-02T08:52:43.422Z,6.58
2018-01-02T08:53:43.441Z,6.64
2018-01-02T08:54:43.464Z,6.62
2018-01-02T08:55:43.484Z,6.78
2018-01-02T08:56:43.497Z,6.65
2018-01-02T08:57:43.517Z,6.64
2018-01-02T08:58:43.540Z,6.73
2018-01-02T08:59:43.560Z,6.73
2018-01-02T09:00:43.572Z,6.79
2018-01-02T09:01:43.593Z,6.73
2018-01-02T09:02:43.616Z,6.78
2018-01-02T09:03:43.640Z,6.86
2018-01-02T09:04:43.654Z,6.80
2018-01-02T09:05:43.668Z,6.75
2018-01-02T09:06:43.691Z,6.82
2018-01-02T09:07:43.705Z,6.72
2018-01-02T09:08:43.730Z,6.79
2018-01-02T09:09:43.742Z,6.72
2018-01-02T09:10:43.767Z,6.73
2018-01-02T09:11:43.786Z,6.82
2018-01-02T09:12:43.805Z,6.80
2018-01-02T09:13:43.824Z,6.85
2018-01-02T09:14:43.843Z,6.86
2018-01-02T09:15:43.857Z,6.80
2018-01-02T09:16:43.881Z,6.82
2018-01-02T09:17:43.895Z,6.94
2018-01-02T09:18:43.918Z,6.83
2018-01-02T09:19:43.938Z,6.94
2018-01-02T09:20:43.952Z,6.94
2018-01-02T09:21:43.973Z,6.97
2018-01-02T09:22:43.994Z,6.93
2018-01-02T09:23:44.014Z,6.97
2018-01-02T09:24:44.028Z,6.95
2018-01-02T09:25:44.046Z,6.98
2018-01-02T09:26:44.070Z,6.94
2018-01-02T09:27:44.085Z,6.98
2018-01-02T09:28:44.103Z,7.01
2018-01-02T09:29:44.128Z,6.98
2018-01-02T09:30:44.147Z,7.03
2018-01-02T09:31:44.166Z,7.11
2018-01-02T09:32:44.181Z,7.15
2018-01-02T09:33:44.200Z,7.23
2018-01-02T09:34:44.224Z,7.22
2018-01-02T09:35:44.244Z,7.11
2018-01-02T09:36:44.257Z,7.16
2018-01-02T09:37:44.276Z,7.19
2018-01-02T09:38:44.302Z,7.05
2018-01-02T09:39:44.323Z,7.01
2018-01-02T09:40:44.353Z,7.03
2018-01-02T09:41:44.354Z,6.93
2018-01-02T09:42:44.378Z,6.91
2018-01-02T09:43:44.392Z,6.91
2018-01-02T09:44:44.417Z,6.86
2018-01-02T09:45:44.437Z,6.93
2018-01-02T09:46:44.456Z,7.05
2018-01-02T09:47:44.470Z,6.95
2018-01-02T09:48:44.489Z,7.13
2018-01-02T09:49:44.515Z,7.22
2018-01-02T09:50:44.527Z,7.26
2018-01-02T09:51:44.551Z,7.29
2018-01-02T09:52:44.565Z,7.33
2018-01-02T09:53:44.591Z,7.30
2018-01-02T09:54:44.604Z,7.26
2018-01-02T09:55:44.628Z,7.19
2018-01-02T09:56:44.644Z,7.26
2018-01-02T09:57:44.671Z,7.22
2018-01-02T09:58:44.681Z,7.21
2018-01-02T09:59:44.701Z,7.16
2018-01-02T10:00:44.722Z,7.12
2018-01-02T10:01:44.741Z,7.11
2018-01-02T10:02:44.759Z,7.09
2018-01-02T10:03:44.785Z,7.09
2018-01-02T10:04:44.799Z,7.11
2018-01-02T10:05:44.818Z,6.98
2018-01-02T10:06:44.843Z,6.95
2018-01-02T10:07:44.870Z,7.03
2018-01-02T10:08:44.877Z,6.95
2018-01-02T10:09:44.896Z,7.03
2018-01-02T10:10:44.920Z,6.97
2018-01-02T10:11:44.940Z,6.95
2018-01-02T10:12:44.955Z,6.90
2018-01-02T10:13:44.974Z,7.00
2018-01-02T10:14:44.999Z,7.03
2018-01-02T10:15:45.019Z,7.04
2018-01-02T10:16:45.039Z,7.00
2018-01-02T10:17:45.116Z,7.04
2018-01-02T10:18:45.077Z,6.98
2018-01-02T10:19:45.091Z,7.08
2018-01-02T10:20:45.119Z,7.16
2018-01-02T10:21:45.136Z,7.22
2018-01-02T10:22:45.149Z,7.21
2018-01-02T10:23:45.169Z,7.18
2018-01-02T10:24:45.195Z,7.12
2018-01-02T10:25:45.214Z,7.11
2018-01-02T10:26:45.228Z,7.18
2018-01-02T10:27:45.249Z,7.15
2018-01-02T10:28:45.272Z,7.22
2018-01-02T10:29:45.287Z,7.13
2018-01-02T10:30:45.313Z,7.12
2018-01-02T10:31:45.327Z,7.09
2018-01-02T10:32:45.347Z,7.11
2018-01-02T10:33:45.373Z,7.09
2018-01-02T10:34:45.391Z,7.16
2018-01-02T10:35:45.411Z,7.09
2018-01-02T10:36:45.426Z,7.21
2018-01-02T10:37:45.451Z,7.21
2018-01-02T10:38:45.470Z,7.26
2018-01-02T10:39:45.489Z,7.11
2018-01-02T10:40:45.503Z,7.13
2018-01-02T10:41:45.529Z,7.12
2018-01-02T10:42:45.545Z,7.15
2018-01-02T10:43:45.571Z,7.13
2018-01-02T10:44:45.581Z,7.12
2018-01-02T10:45:45.607Z,7.12
2018-01-02T10:46:45.626Z,7.16
2018-01-02T10:47:45.640Z,7.22
2018-01-02T10:48:45.665Z,7.15
2018-01-02T10:49:45.694Z,7.22
2018-01-02T10:50:45.699Z,7.16
2018-01-02T10:51:45.718Z,7.23
2018-01-02T10:52:45.738Z,7.19
2018-01-02T10:53:45.812Z,7.30
2018-01-02T10:54:45.783Z,7.23
2018-01-02T10:55:45.796Z,7.34
2018-01-02T10:56:45.822Z,7.30
2018-01-02T10:57:45.836Z,7.30
2018-01-02T10:58:45.861Z,7.29
2018-01-02T10:59:45.873Z,7.33
2018-01-02T11:00:45.898Z,7.34
2018-01-02T11:01:45.921Z,7.34
2018-01-02T11:02:45.931Z,7.33
2018-01-02T11:03:45.951Z,7.36
2018-01-02T11:04:45.977Z,7.36
2018-01-02T11:05:45.991Z,7.31
2018-01-02T11:06:46.012Z,7.33
2018-01-02T11:07:46.030Z,7.47
2018-01-02T11:08:46.049Z,7.31
2018-01-02T11:09:46.078Z,7.30
2018-01-02T11:10:46.090Z,7.48
2018-01-02T11:11:46.116Z,7.55
2018-01-02T11:12:46.128Z,7.48
2018-01-02T11:13:46.154Z,7.40
2018-01-02T11:14:46.168Z,7.36
2018-01-02T11:15:46.190Z,7.29
2018-01-02T11:16:46.204Z,7.31
2018-01-02T11:17:46.230Z,7.34
2018-01-02T11:18:46.243Z,7.31
2018-01-02T11:19:46.268Z,7.41
2018-01-02T11:20:46.284Z,7.31
2018-01-02T11:21:46.308Z,7.31
2018-01-02T11:22:46.323Z,7.34
2018-01-02T11:23:46.346Z,7.31
2018-01-02T11:24:46.361Z,7.29
2018-01-02T11:25:46.379Z,7.30
2018-01-02T11:26:46.405Z,7.16
2018-01-02T11:27:46.424Z,7.18
2018-01-02T11:28:46.439Z,7.18
2018-01-02T11:29:46.465Z,7.21
2018-01-02T11:30:46.481Z,7.11
2018-01-02T11:31:46.502Z,7.18
2018-01-02T11:32:46.519Z,7.18
2018-01-02T11:33:46.535Z,7.19
2018-01-02T11:34:46.560Z,7.29
2018-01-02T11:35:46.580Z,7.21
2018-01-02T11:36:46.592Z,7.26
2018-01-02T11:37:46.614Z,7.29
2018-01-02T11:38:46.637Z,7.18
2018-01-02T11:39:46.665Z,7.12
2018-01-02T11:40:46.670Z,7.16
2018-01-02T11:41:46.693Z,7.26
2018-01-02T11:42:46.714Z,7.22
2018-01-02T11:43:46.733Z,7.22
2018-01-02T11:44:46.748Z,7.19
2018-01-02T11:45:46.766Z,7.29
2018-01-02T11:46:46.840Z,7.30
2018-01-02T11:47:46.810Z,7.27
2018-01-02T11:48:46.824Z,7.30
2018-01-02T11:49:46.844Z,7.31
2018-01-02T11:50:46.868Z,7.33
2018-01-02T11:51:46.888Z,7.29
2018-01-02T11:52:46.901Z,7.29
2018-01-02T11:53:46.922Z,7.31
2018-01-02T11:54:46.945Z,7.29
2018-01-02T11:55:46.968Z,7.36
2018-01-02T11:56:46.979Z,7.36
2018-01-02T11:57:46.998Z,7.33
2018-01-02T11:58:47.022Z,7.37
2018-01-02T11:59:47.036Z,7.33
2018-01-02T12:00:47.062Z,7.37
2018-01-02T12:01:47.076Z,7.41
2018-01-02T12:02:47.100Z,7.40
2018-01-02T12:03:47.115Z,7.47
2018-01-02T12:04:47.138Z,7.45
2018-01-02T12:05:47.157Z,7.41
2018-01-02T12:06:47.179Z,7.37
2018-01-02T12:07:47.191Z,7.29
2018-01-02T12:08:47.216Z,7.34
2018-01-02T12:09:47.231Z,7.19
2018-01-02T12:10:47.254Z,7.09
2018-01-02T12:11:47.269Z,7.15
2018-01-02T12:12:47.294Z,7.16
2018-01-02T12:13:47.307Z,7.09
2018-01-02T12:14:47.332Z,7.11
2018-01-02T12:15:47.352Z,7.08
2018-01-02T12:16:47.367Z,7.09
2018-01-02T12:17:47.386Z,7.12
2018-01-02T12:18:47.420Z,7.13
2018-01-02T12:19:47.429Z,7.26
2018-01-02T12:20:47.442Z,7.15
2018-01-02T12:21:47.471Z,7.22
2018-01-02T12:22:47.485Z,7.23
2018-01-02T12:23:47.506Z,7.23
2018-01-02T12:24:47.544Z,7.22
2018-01-02T12:25:47.546Z,7.16
2018-01-02T12:26:47.558Z,7.13
2018-01-02T12:27:47.583Z,7.22
2018-01-02T12:28:47.597Z,7.13
2018-01-02T12:29:47.622Z,7.27
2018-01-02T12:30:47.635Z,7.16
2018-01-02T12:31:47.656Z,7.12
2018-01-02T12:32:47.679Z,7.09
2018-01-02T12:33:47.702Z,7.08
2018-01-02T12:34:47.712Z,7.03
2018-01-02T12:35:47.732Z,7.01
2018-01-02T12:36:47.757Z,7.01
2018-01-02T12:37:47.774Z,6.95
2018-01-02T12:38:47.795Z,6.83
2018-01-02T12:39:47.814Z,6.82
2018-01-02T12:40:47.828Z,6.75
2018-01-02T12:41:47.848Z,6.73
2018-01-02T12:42:47.872Z,6.72
2018-01-02T12:43:47.892Z,6.60
2018-01-02T12:44:47.905Z,6.60
2018-01-02T12:45:47.925Z,6.73
2018-01-02T12:46:47.951Z,6.76
2018-01-02T12:47:47.966Z,6.79
2018-01-02T12:48:47.990Z,6.85
2018-01-02T12:49:48.713Z,6.88
2018-01-02T12:50:48.829Z,6.88
2018-01-02T12:51:48.450Z,6.85
2018-01-02T12:52:48.090Z,6.94
2018-01-02T12:53:48.221Z,7.00
2018-01-02T12:54:48.106Z,6.97
2018-01-02T12:55:48.123Z,6.88
2018-01-02T12:56:48.143Z,7.00
2018-01-02T12:57:48.156Z,6.91
2018-01-02T12:58:48.250Z,7.01
2018-01-02T12:59:48.248Z,7.05
2018-01-02T13:00:48.217Z,7.03
2018-01-02T13:01:48.238Z,7.01
2018-01-02T13:02:48.251Z,6.98
2018-01-02T13:03:48.280Z,7.00
2018-01-02T13:04:48.291Z,6.94
2018-01-02T13:05:48.316Z,6.93
2018-01-02T13:06:48.329Z,6.93
2018-01-02T13:07:48.355Z,6.97
2018-01-02T13:08:48.369Z,7.00
2018-01-02T13:09:48.387Z,6.90
2018-01-02T13:10:48.412Z,6.93
2018-01-02T13:11:48.425Z,6.94
2018-01-02T13:12:48.450Z,6.94
2018-01-02T13:13:48.465Z,6.91
2018-01-02T13:14:48.489Z,6.94
2018-01-02T13:15:48.501Z,7.03
2018-01-02T13:16:48.527Z,7.00
2018-01-02T13:17:48.550Z,6.91
2018-01-02T13:18:48.560Z,7.03